Hlavní strana
METAR-TAF:

METAR-TAF

Letiště :

Letiště Katowice

Katovice, Polsko

zeměpisná šířka: 50-28-27N, zeměpisná délka: 019-04-48E, výška: 284 m

Aktuální stav počasí

Zpráva byla vytvořena před 13 minutami, v 11:00 UTC
Severovýchodní vítr 8 kt, proměnlivý mezi severním a východoseverovýchodním
Teplota 21°C
Vlhkost vzduchu 43%
Tlak 1019 hPa
Viditelnost 10 km a více
Skoro jasno ve výšce 5300 ft, Cumulonimbus.

METAR: EPKT 251100Z 04008KT 010V070 9999 FEW053CB 21/08 Q1019

Čas: 13:13 (11:13 UTC)

Předpověď počasí

Zpráva byla vytvořena před 5 hodinami a 43 minutami, v 05:30 UTC
Předpověď platná od 25 v 06 UTC do 26 v 06 UTC
Východoseverovýchodní vítr 7 kt
Viditelnost 10 km a více
Žádná oblačnost pod 1500 m, nevyskytují se cumulonimby.
Dočasný
od 25 v 11 UTC do 25 v 20 UTC
Polojasno ve výšce 4000 ft, Cumulonimbus.
Pravděpodobnost 30% :
Dočasný
od 25 v 13 UTC do 25 v 19 UTC
bouřka, déšť

TAF: EPKT 250530Z 2506/2606 07007KT CAVOK TEMPO 2511/2520 SCT040CB PROB30 TEMPO 2513/2519 TSRA

Stav a předpovědi počasí z více než 4 000 letišť (zprávy METAR a TAF).

Červené a žluté tečky na mapě představují dostupné meteorologické stanice.

Když kurzor umístíte na tečku, zobrazí se název stanice.

Pak kliknutím zobrazíte stav a předpověď počasí.

Chcete-li změnit mapu, kliknutím na zelené tlačítko se znaménkem +mapu přiblížíte, kliknutím na zelené tlačítko se znaménkem – mapu oddálíte a kliknutím na zelené šipky přejdete na sousední mapy.


METAR-TAF: